Time;durP1;ratioP1;P1;durP2;ratioP2;P2;SDS_P1;SDS_P2;PMS_P1;PMS_P2;Temp;Humidity;BMP_temperature;BMP_pressure;BME280_temperature;BME280_humidity;BME280_pressure;Samples;Min_cycle;Max_cycle;Signal;HPM_P1;HPM_P2
2022/06/28 00:02:08;;;;;;;2.00;1.17;;;13.50;21.20;;;;;;5062909;28;34192;-76
2022/06/28 00:04:34;;;;;;;1.30;0.90;;;13.40;21.20;;;;;;5063911;28;34135;-76
2022/06/28 00:07:00;;;;;;;2.17;1.20;;;13.40;21.30;;;;;;5061972;28;34266;-75
2022/06/28 00:09:26;;;;;;;0.82;0.82;;;13.30;21.20;;;;;;5063174;28;34115;-75
2022/06/28 00:11:53;;;;;;;1.42;0.90;;;13.30;21.40;;;;;;5062824;28;34000;-75
2022/06/28 00:17:00;;;;;;;5.30;1.30;;;13.20;21.30;;;;;;5063254;28;34352;-76
2022/06/28 00:19:26;;;;;;;1.65;1.00;;;13.20;21.40;;;;;;5062989;28;34143;-76
2022/06/28 00:21:52;;;;;;;1.10;0.90;;;13.10;21.50;;;;;;5064198;28;34249;-75
2022/06/28 00:24:18;;;;;;;1.65;1.20;;;13.10;21.50;;;;;;5062227;28;36385;-76
2022/06/28 00:26:45;;;;;;;1.40;1.00;;;13.10;21.50;;;;;;5062622;28;34355;-75
2022/06/28 00:29:11;;;;;;;1.52;1.15;;;13.00;21.50;;;;;;5063812;28;34095;-76
2022/06/28 00:31:37;;;;;;;2.00;0.95;;;13.00;21.50;;;;;;5064034;28;34361;-75
2022/06/28 00:34:04;;;;;;;1.80;1.00;;;13.00;21.60;;;;;;5062144;28;36686;-76
2022/06/28 00:36:30;;;;;;;1.10;1.00;;;13.00;21.70;;;;;;5062383;28;34468;-75
2022/06/28 00:38:56;;;;;;;1.10;1.00;;;13.00;21.70;;;;;;5062439;28;34248;-75
2022/06/28 00:41:22;;;;;;;0.80;0.80;;;12.90;21.90;;;;;;5062204;28;34444;-76
2022/06/28 00:43:48;;;;;;;2.65;1.15;;;13.00;21.80;;;;;;5062158;28;35670;-76
2022/06/28 00:46:14;;;;;;;2.90;0.90;;;12.90;21.80;;;;;;5063497;28;34138;-75
2022/06/28 00:48:40;;;;;;;3.17;1.08;;;12.90;22.00;;;;;;5063379;28;34409;-75
2022/06/28 00:51:08;;;;;;;2.45;1.00;;;12.90;22.00;;;;;;5062646;28;34174;-75
2022/06/28 00:53:34;;;;;;;1.00;1.00;;;12.90;22.10;;;;;;5061680;28;35899;-76
2022/06/28 00:56:01;;;;;;;1.10;1.00;;;12.90;22.10;;;;;;5063284;28;34272;-76
2022/06/28 00:58:27;;;;;;;2.75;1.08;;;12.90;22.10;;;;;;5062352;28;34023;-75
2022/06/28 01:00:53;;;;;;;1.42;1.20;;;12.90;22.00;;;;;;5063488;28;34127;-75
2022/06/28 01:03:22;;;;;;;1.15;1.05;;;12.90;22.10;;;;;;5061381;28;36616;-75
2022/06/28 01:05:49;;;;;;;1.23;1.00;;;12.90;22.10;;;;;;5063112;28;34142;-75
2022/06/28 01:08:15;;;;;;;1.70;1.20;;;12.90;22.10;;;;;;5062929;28;34175;-75
2022/06/28 01:10:42;;;;;;;1.15;0.98;;;12.90;22.00;;;;;;5063399;28;34238;-75
2022/06/28 01:13:09;;;;;;;3.42;1.30;;;12.90;22.10;;;;;;5061835;28;36079;-75
2022/06/28 01:15:37;;;;;;;2.75;1.40;;;12.90;22.20;;;;;;5061890;28;34355;-75
2022/06/28 01:18:04;;;;;;;2.05;1.25;;;12.90;22.40;;;;;;5046389;28;34155;-76
2022/06/28 01:20:31;;;;;;;1.17;1.08;;;12.90;22.30;;;;;;5048601;28;34155;-75
2022/06/28 01:22:57;;;;;;;1.40;1.25;;;12.90;22.20;;;;;;5065531;28;36275;-75
2022/06/28 01:25:24;;;;;;;1.52;1.23;;;12.90;22.20;;;;;;5048888;28;34018;-76
2022/06/28 01:27:52;;;;;;;1.50;1.08;;;13.00;22.30;;;;;;5048711;28;34235;-75
2022/06/28 01:30:18;;;;;;;1.10;1.10;;;13.00;22.40;;;;;;5065468;28;34280;-75
2022/06/28 01:32:45;;;;;;;1.00;1.00;;;13.00;22.30;;;;;;5065087;28;36623;-75
2022/06/28 01:35:11;;;;;;;0.93;0.93;;;13.00;22.30;;;;;;5047811;28;34211;-75
2022/06/28 01:37:37;;;;;;;2.97;1.08;;;13.00;22.30;;;;;;5065487;28;34387;-75
2022/06/28 01:40:04;;;;;;;2.75;1.20;;;13.00;22.40;;;;;;5066286;28;34143;-76
2022/06/28 01:42:31;;;;;;;1.02;0.93;;;13.00;22.40;;;;;;5064815;28;35609;-75
2022/06/28 01:44:59;;;;;;;1.02;1.00;;;13.10;22.50;;;;;;5066581;28;34222;-75
2022/06/28 01:47:27;;;;;;;3.50;1.10;;;13.10;22.50;;;;;;5065195;28;34178;-75
2022/06/28 01:49:54;;;;;;;2.30;1.00;;;13.00;22.40;;;;;;5065674;28;34365;-75
2022/06/28 01:52:21;;;;;;;1.63;1.10;;;13.10;22.40;;;;;;5064527;28;35770;-75
2022/06/28 01:54:47;;;;;;;1.20;1.00;;;13.00;22.30;;;;;;5065109;28;34298;-76
2022/06/28 01:57:15;;;;;;;1.25;1.10;;;13.00;22.40;;;;;;5064824;28;34249;-75
2022/06/28 01:59:41;;;;;;;1.15;1.00;;;13.00;22.40;;;;;;5064908;28;34176;-75
2022/06/28 02:02:07;;;;;;;1.77;1.00;;;12.90;22.40;;;;;;5065826;28;34099;-75
2022/06/28 02:04:33;;;;;;;2.05;1.13;;;12.90;22.50;;;;;;5064793;28;34317;-75
2022/06/28 02:07:00;;;;;;;1.98;0.90;;;12.90;23.20;;;;;;5066048;28;34167;-75
2022/06/28 02:09:26;;;;;;;1.13;1.02;;;12.80;22.50;;;;;;5047771;28;34392;-75
2022/06/28 02:11:53;;;;;;;3.20;1.00;;;12.80;22.60;;;;;;5063837;28;36580;-75
2022/06/28 02:14:20;;;;;;;1.20;1.10;;;12.70;22.60;;;;;;5064864;28;34219;-75
2022/06/28 02:16:46;;;;;;;1.70;1.10;;;12.70;22.60;;;;;;5064539;28;34146;-75
2022/06/28 02:19:12;;;;;;;4.78;1.15;;;12.70;22.60;;;;;;5064674;28;34322;-75
2022/06/28 02:21:41;;;;;;;1.63;0.90;;;12.60;22.40;;;;;;5064294;28;36724;-75
2022/06/28 02:24:09;;;;;;;2.58;1.05;;;12.60;22.50;;;;;;5064615;28;34177;-75
2022/06/28 02:26:35;;;;;;;1.05;1.00;;;12.50;22.60;;;;;;5047600;28;34053;-75
2022/06/28 02:29:04;;;;;;;1.23;1.13;;;12.50;22.60;;;;;;5064761;28;34230;-75
2022/06/28 02:31:30;;;;;;;1.80;1.10;;;12.40;22.60;;;;;;5065334;28;34442;-75
2022/06/28 02:33:57;;;;;;;4.70;1.13;;;12.40;22.70;;;;;;5064607;28;34187;-75
2022/06/28 02:41:47;;;;;;;1.20;1.00;;;12.30;22.80;;;;;;5063930;28;34340;-75
2022/06/28 02:44:15;;;;;;;1.10;1.00;;;12.20;22.80;;;;;;5063993;28;34358;-75
2022/06/28 02:46:42;;;;;;;3.90;0.93;;;12.20;22.80;;;;;;5063970;28;34144;-75
2022/06/28 02:49:08;;;;;;;2.72;1.20;;;12.10;22.80;;;;;;5064158;28;34347;-75
2022/06/28 02:51:34;;;;;;;1.42;1.02;;;12.10;23.50;;;;;;5047291;28;36423;-75
2022/06/28 02:54:00;;;;;;;3.30;1.10;;;12.10;22.80;;;;;;5065217;28;34076;-75
2022/06/28 02:56:26;;;;;;;3.63;1.20;;;12.00;22.80;;;;;;5046795;28;34148;-75
2022/06/28 02:58:52;;;;;;;1.25;1.10;;;12.00;22.90;;;;;;5064315;28;34549;-75
2022/06/28 03:01:18;;;;;;;1.00;1.00;;;12.00;22.90;;;;;;5063492;28;35770;-75
2022/06/28 03:03:44;;;;;;;1.15;1.10;;;11.90;23.00;;;;;;5065241;28;34196;-76
2022/06/28 03:06:10;;;;;;;0.85;0.85;;;11.90;22.90;;;;;;5063350;28;34134;-75
2022/06/28 03:08:35;;;;;;;1.40;1.33;;;11.90;22.90;;;;;;5064966;28;34060;-75
2022/06/28 03:11:01;;;;;;;2.85;1.05;;;11.90;23.00;;;;;;5063709;28;34270;-74
2022/06/28 03:13:28;;;;;;;0.95;0.90;;;11.90;23.00;;;;;;5063902;28;34092;-75
2022/06/28 03:15:53;;;;;;;1.20;1.10;;;11.80;22.90;;;;;;5063739;28;34346;-75
2022/06/28 03:18:19;;;;;;;1.30;0.90;;;11.80;22.90;;;;;;5063555;28;34265;-75
2022/06/28 03:20:45;;;;;;;2.78;1.20;;;11.80;22.90;;;;;;5062955;28;34190;-75
2022/06/28 03:23:11;;;;;;;3.42;1.08;;;11.70;22.80;;;;;;5063146;28;34315;-75
2022/06/28 03:25:38;;;;;;;1.50;1.00;;;11.70;22.90;;;;;;5063631;28;34383;-75
2022/06/28 03:28:04;;;;;;;2.95;1.00;;;11.70;23.00;;;;;;5064603;28;34261;-75
2022/06/28 03:30:31;;;;;;;1.20;1.08;;;11.70;23.00;;;;;;5064429;28;34050;-74
2022/06/28 03:32:57;;;;;;;2.22;1.02;;;11.70;23.00;;;;;;5046786;28;34548;-75
2022/06/28 03:35:24;;;;;;;3.53;1.17;;;11.60;22.90;;;;;;5064615;28;34151;-75
2022/06/28 03:37:50;;;;;;;1.30;0.98;;;11.60;23.00;;;;;;5063370;28;34600;-74
2022/06/28 03:40:16;;;;;;;0.93;0.93;;;11.60;23.20;;;;;;5063550;28;34842;-75
2022/06/28 03:42:42;;;;;;;1.35;1.20;;;11.60;23.10;;;;;;5062562;28;34171;-75
2022/06/28 03:45:08;;;;;;;2.80;1.10;;;11.60;23.20;;;;;;5063272;28;34103;-75
2022/06/28 03:47:34;;;;;;;4.65;1.45;;;11.60;23.10;;;;;;5064604;28;34174;-74
2022/06/28 03:50:00;;;;;;;0.90;0.90;;;11.60;23.20;;;;;;5062957;28;36018;-75
2022/06/28 03:52:29;;;;;;;1.50;1.08;;;11.60;23.30;;;;;;5062644;28;34001;-75
2022/06/28 03:54:58;;;;;;;1.38;1.10;;;11.60;23.20;;;;;;5062991;28;34249;-75
2022/06/28 03:57:25;;;;;;;2.55;1.00;;;11.60;23.30;;;;;;5077087;28;34280;-75
2022/06/28 03:59:52;;;;;;;1.10;1.00;;;11.60;23.20;;;;;;5084138;28;34516;-75
2022/06/28 04:02:18;;;;;;;1.52;1.17;;;11.60;23.20;;;;;;5083144;28;34205;-75
2022/06/28 04:04:44;;;;;;;1.20;1.10;;;11.60;23.10;;;;;;5084436;28;34123;-75
2022/06/28 04:07:09;;;;;;;2.85;1.17;;;11.60;23.10;;;;;;5083099;28;34498;-76
2022/06/28 04:09:35;;;;;;;1.42;1.17;;;11.60;23.10;;;;;;5084081;28;34304;-75
2022/06/28 04:12:01;;;;;;;1.40;1.20;;;11.60;23.20;;;;;;5066302;28;34160;-75
2022/06/28 04:14:27;;;;;;;2.10;1.20;;;11.70;23.30;;;;;;5083200;28;34165;-75
2022/06/28 04:16:53;;;;;;;0.95;0.90;;;11.80;23.40;;;;;;5083359;28;34500;-75
2022/06/28 04:19:19;;;;;;;1.83;1.40;;;11.80;23.20;;;;;;5082430;28;36811;-75
2022/06/28 04:21:45;;;;;;;1.30;1.20;;;11.80;23.20;;;;;;5084018;28;34035;-75
2022/06/28 04:24:10;;;;;;;1.45;1.08;;;11.90;23.20;;;;;;5065847;28;34164;-75
2022/06/28 04:26:36;;;;;;;1.60;1.15;;;11.90;23.30;;;;;;5082846;28;34181;-75
2022/06/28 04:29:03;;;;;;;1.63;1.20;;;12.00;23.30;;;;;;5082672;28;35969;-75
2022/06/28 04:31:29;;;;;;;1.40;1.17;;;12.00;23.20;;;;;;5083919;28;34239;-76
2022/06/28 04:33:54;;;;;;;2.75;1.20;;;12.00;23.80;;;;;;5082998;28;34302;-75
2022/06/28 04:36:20;;;;;;;6.03;1.20;;;12.00;23.10;;;;;;5082639;28;34076;-75
2022/06/28 04:38:46;;;;;;;3.78;1.00;;;12.10;23.20;;;;;;5082396;28;35647;-75
2022/06/28 04:41:12;;;;;;;1.35;1.00;;;12.10;23.10;;;;;;5083039;28;34353;-75
2022/06/28 04:43:38;;;;;;;1.08;1.08;;;12.10;23.20;;;;;;5082203;28;34451;-76
2022/06/28 04:46:05;;;;;;;1.42;1.35;;;12.10;23.20;;;;;;5065947;28;34101;-75
2022/06/28 04:48:31;;;;;;;1.52;1.42;;;12.10;23.20;;;;;;5082033;28;35892;-75
2022/06/28 04:51:10;;;;;;;2.45;1.50;;;12.10;23.50;;;;;;5083945;28;34301;-75
2022/06/28 04:53:38;;;;;;;2.50;1.40;;;12.20;23.60;;;;;;5067042;28;34162;-75
2022/06/28 04:56:05;;;;;;;3.70;1.50;;;12.20;23.50;;;;;;5082733;28;34010;-75
2022/06/28 04:58:31;;;;;;;1.60;1.50;;;12.30;23.60;;;;;;5083267;28;34209;-75
2022/06/28 05:00:56;;;;;;;1.52;1.20;;;12.40;23.60;;;;;;5082546;28;34380;-75
2022/06/28 05:03:23;;;;;;;8.85;1.90;;;12.40;23.70;;;;;;5082028;28;34111;-75
2022/06/28 05:05:49;;;;;;;5.10;1.75;;;12.50;24.00;;;;;;5082078;28;34249;-75
2022/06/28 05:08:15;;;;;;;1.65;1.55;;;12.60;23.80;;;;;;5064842;28;36191;-75
2022/06/28 05:10:41;;;;;;;12.50;1.92;;;12.70;23.80;;;;;;5082293;28;34101;-76
2022/06/28 05:13:07;;;;;;;2.00;1.80;;;12.80;23.70;;;;;;5082078;28;34158;-75
2022/06/28 05:15:33;;;;;;;1.83;1.73;;;13.00;23.80;;;;;;5082865;28;34155;-75
2022/06/28 05:17:59;;;;;;;2.17;1.65;;;13.20;23.70;;;;;;5083337;28;34279;-75
2022/06/28 05:20:25;;;;;;;4.10;1.63;;;13.30;23.60;;;;;;5082172;28;34217;-75
2022/06/28 05:22:50;;;;;;;3.65;2.13;;;13.50;23.50;;;;;;5081966;28;34228;-75
2022/06/28 05:25:17;;;;;;;2.67;1.67;;;13.60;23.30;;;;;;5081987;28;34068;-76
2022/06/28 05:27:43;;;;;;;3.72;1.90;;;13.80;23.20;;;;;;5082087;28;36020;-76
2022/06/28 05:30:11;;;;;;;7.38;1.83;;;13.90;23.10;;;;;;5081854;28;34161;-76
2022/06/28 05:32:38;;;;;;;4.72;1.83;;;14.20;22.50;;;;;;5065268;28;34168;-76
2022/06/28 05:35:05;;;;;;;1.90;1.80;;;14.70;21.90;;;;;;5081726;28;34561;-76
2022/06/28 05:37:32;;;;;;;1.60;1.50;;;15.40;21.10;;;;;;5064717;28;35702;-76
2022/06/28 05:39:58;;;;;;;1.73;1.63;;;16.40;20.00;;;;;;5082578;28;34121;-76
2022/06/28 05:42:24;;;;;;;1.50;1.40;;;17.40;19.00;;;;;;5081785;28;34269;-76
2022/06/28 05:44:50;;;;;;;1.52;1.10;;;18.50;18.30;;;;;;5081876;28;34346;-76
2022/06/28 05:47:16;;;;;;;2.45;1.27;;;19.40;16.70;;;;;;5047905;28;36060;-76
2022/06/28 05:49:41;;;;;;;1.73;1.20;;;20.30;15.70;;;;;;5081706;28;34049;-76
2022/06/28 05:52:08;;;;;;;1.30;1.20;;;21.20;14.70;;;;;;5081687;28;34030;-76
2022/06/28 05:54:35;;;;;;;1.15;1.10;;;22.00;13.80;;;;;;5082002;28;34177;-77
2022/06/28 05:57:01;;;;;;;1.00;1.00;;;22.70;12.70;;;;;;5083627;28;34122;-78
2022/06/28 05:59:27;;;;;;;0.98;0.90;;;23.30;11.40;;;;;;5064426;28;34259;-76
2022/06/28 06:01:55;;;;;;;0.93;0.90;;;23.80;10.60;;;;;;5082024;28;34302;-77
2022/06/28 06:04:24;;;;;;;2.17;1.00;;;24.30;10.10;;;;;;5082260;28;34247;-77
2022/06/28 06:06:51;;;;;;;0.80;0.80;;;24.50;9.30;;;;;;5084682;28;36353;-77
2022/06/28 06:09:17;;;;;;;1.45;1.10;;;24.90;8.80;;;;;;5085748;28;34018;-77
2022/06/28 06:11:44;;;;;;;1.48;1.10;;;25.20;8.40;;;;;;5086723;28;33737;-77
2022/06/28 06:14:11;;;;;;;1.23;1.05;;;25.60;7.90;;;;;;5086555;28;34206;-78
2022/06/28 06:16:37;;;;;;;1.48;1.00;;;25.80;7.10;;;;;;5085265;28;35618;-77
2022/06/28 06:19:03;;;;;;;1.05;0.90;;;25.90;6.80;;;;;;5085404;28;34274;-77
2022/06/28 06:21:28;;;;;;;1.10;1.00;;;26.00;6.70;;;;;;5085674;28;34184;-77
2022/06/28 06:23:54;;;;;;;1.77;1.00;;;26.10;6.60;;;;;;5085173;28;34520;-77
2022/06/28 06:26:20;;;;;;;1.08;0.80;;;26.10;6.90;;;;;;5084265;28;36769;-77
2022/06/28 06:28:46;;;;;;;2.55;1.08;;;26.00;6.80;;;;;;5084505;28;34275;-77
2022/06/28 06:31:12;;;;;;;0.90;0.90;;;25.60;7.10;;;;;;5083943;28;34171;-77
2022/06/28 06:33:38;;;;;;;1.88;1.15;;;25.00;7.60;;;;;;5085455;28;34410;-77
2022/06/28 06:36:05;;;;;;;1.25;1.08;;;24.50;8.00;;;;;;5084429;28;35480;-77
2022/06/28 06:38:31;;;;;;;1.35;1.10;;;24.10;8.70;;;;;;5067736;28;34326;-77
2022/06/28 06:40:58;;;;;;;2.53;1.42;;;23.50;9.40;;;;;;5084259;28;34176;-77
2022/06/28 06:43:26;;;;;;;1.17;0.80;;;23.10;10.10;;;;;;5084438;28;34377;-77
2022/06/28 06:45:53;;;;;;;1.08;0.88;;;22.70;10.30;;;;;;5066946;28;36586;-76
2022/06/28 06:48:19;;;;;;;1.48;1.10;;;22.30;11.00;;;;;;5084326;28;34227;-77
2022/06/28 06:50:45;;;;;;;1.75;0.90;;;22.10;11.20;;;;;;5067708;28;34253;-77
2022/06/28 06:53:11;;;;;;;1.20;1.10;;;22.10;11.00;;;;;;5050881;28;34403;-77
2022/06/28 06:55:37;;;;;;;2.63;1.13;;;22.50;10.50;;;;;;5084411;28;36276;-78
2022/06/28 06:58:03;;;;;;;1.23;1.13;;;23.00;9.90;;;;;;5085057;28;34191;-77
2022/06/28 07:00:29;;;;;;;1.00;1.00;;;23.70;9.40;;;;;;5084795;28;34192;-77
2022/06/28 07:02:55;;;;;;;1.88;1.17;;;24.10;9.00;;;;;;5067201;28;34144;-78
2022/06/28 07:05:21;;;;;;;1.50;1.20;;;24.00;8.70;;;;;;5083414;28;35640;-77
2022/06/28 07:10:31;;;;;;;2.17;1.35;;;23.90;8.40;;;;;;5084806;28;34053;-77
2022/06/28 07:12:57;;;;;;;1.42;1.33;;;24.20;8.20;;;;;;5084841;28;34118;-77
2022/06/28 07:15:23;;;;;;;2.50;1.17;;;24.60;8.00;;;;;;5084158;28;35660;-77
2022/06/28 07:17:49;;;;;;;1.27;1.00;;;24.80;7.60;;;;;;5085198;28;33690;-77
2022/06/28 07:20:15;;;;;;;2.30;1.20;;;25.10;7.40;;;;;;5084041;28;34109;-77
2022/06/28 07:22:41;;;;;;;2.85;1.20;;;25.40;7.00;;;;;;5085861;28;34526;-78
2022/06/28 07:25:07;;;;;;;2.35;0.90;;;25.70;6.60;;;;;;5068885;28;35572;-77
2022/06/28 07:27:33;;;;;;;1.10;1.00;;;26.10;6.70;;;;;;5086694;28;34176;-77
2022/06/28 07:29:59;;;;;;;1.35;1.15;;;26.30;6.50;;;;;;5085232;28;34406;-77
2022/06/28 07:32:25;;;;;;;1.00;0.90;;;26.50;6.40;;;;;;5067909;28;34034;-77
2022/06/28 07:34:51;;;;;;;1.65;1.10;;;26.70;5.90;;;;;;5084320;28;35709;-77
2022/06/28 07:37:17;;;;;;;1.00;1.00;;;26.70;6.20;;;;;;5067578;28;34413;-77
2022/06/28 07:39:43;;;;;;;1.60;1.05;;;26.90;5.50;;;;;;5085276;28;34096;-78
2022/06/28 07:42:09;;;;;;;1.15;1.00;;;27.10;5.70;;;;;;5085079;28;34156;-79
2022/06/28 07:44:35;;;;;;;2.30;0.90;;;27.40;5.50;;;;;;5084953;28;35627;-77
2022/06/28 07:47:01;;;;;;;1.17;1.00;;;27.50;5.10;;;;;;5081239;28;34309;-79
2022/06/28 07:52:33;;;;;;;0.88;0.85;;;27.70;5.10;;;;;;5066024;28;34333;-78
2022/06/28 07:54:54;;;;;;;4.32;1.00;;;28.00;4.70;;;;;;5071304;28;34310;-76
2022/06/28 07:57:20;;;;;;;1.70;0.80;;;28.00;4.50;;;;;;5047649;28;34266;-77
2022/06/28 08:02:30;;;;;;;3.10;0.70;;;28.40;4.30;;;;;;5108240;28;34335;-78
2022/06/28 08:04:56;;;;;;;1.15;1.05;;;28.60;3.70;;;;;;5095706;28;34125;-78
2022/06/28 08:07:22;;;;;;;0.88;0.85;;;28.50;2.90;;;;;;5067002;28;34160;-77
2022/06/28 08:09:48;;;;;;;0.82;0.80;;;28.30;2.60;;;;;;5085301;28;34190;-78
2022/06/28 08:12:14;;;;;;;1.05;0.80;;;28.00;2.40;;;;;;5084728;28;34252;-77
2022/06/28 08:14:41;;;;;;;1.02;0.90;;;28.10;2.50;;;;;;5085227;28;35726;-77
2022/06/28 08:17:07;;;;;;;1.40;0.75;;;27.90;2.00;;;;;;5084549;28;34049;-77
2022/06/28 08:19:34;;;;;;;1.52;0.77;;;27.90;1.80;;;;;;5086139;28;34082;-78
2022/06/28 08:22:00;;;;;;;2.97;0.95;;;27.90;1.20;;;;;;5069277;28;34292;-78
2022/06/28 08:24:26;;;;;;;0.73;0.73;;;27.90;1.40;;;;;;5086847;28;35950;-78
2022/06/28 08:26:53;;;;;;;0.68;0.65;;;28.10;2.00;;;;;;5088173;28;34435;-80
2022/06/28 08:29:20;;;;;;;1.67;0.73;;;28.10;1.50;;;;;;5087113;28;34764;-78
2022/06/28 08:31:47;;;;;;;2.72;0.77;;;28.30;1.30;;;;;;5087203;28;34116;-79
2022/06/28 08:34:13;;;;;;;5.97;0.80;;;28.40;1.20;;;;;;5071206;28;35587;-78
2022/06/28 08:36:39;;;;;;;1.35;0.73;;;28.40;1.40;;;;;;5086744;28;34204;-78
2022/06/28 08:39:06;;;;;;;1.73;0.80;;;28.40;1.00;;;;;;5068755;28;34050;-77
2022/06/28 08:41:33;;;;;;;1.90;0.85;;;28.50;1.00;;;;;;5068345;28;34099;-77
2022/06/28 08:43:59;;;;;;;0.85;0.77;;;28.60;1.00;;;;;;5085821;28;36064;-78
2022/06/28 08:46:25;;;;;;;9.20;0.80;;;28.60;1.00;;;;;;5087252;28;34273;-77
2022/06/28 08:48:55;;;;;;;1.05;0.68;;;28.80;1.00;;;;;;5086712;28;34305;-78
2022/06/28 08:51:22;;;;;;;1.75;0.70;;;28.90;1.00;;;;;;5087617;28;34182;-78
2022/06/28 08:53:49;;;;;;;2.17;0.60;;;29.00;1.00;;;;;;5082711;28;35806;-78
2022/06/28 08:56:15;;;;;;;2.28;0.77;;;29.10;1.00;;;;;;5066452;28;33849;-78
2022/06/28 08:58:43;;;;;;;2.20;1.00;;;29.10;1.00;;;;;;5064744;28;34095;-77
2022/06/28 09:01:11;;;;;;;0.70;0.70;;;29.10;1.00;;;;;;5048463;28;34405;-78
2022/06/28 09:03:38;;;;;;;1.88;0.68;;;29.10;1.00;;;;;;5064531;28;36148;-78
2022/06/28 09:06:05;;;;;;;1.23;0.70;;;29.20;1.00;;;;;;5066214;28;34151;-78
2022/06/28 09:08:32;;;;;;;0.50;0.50;;;29.20;1.00;;;;;;5065219;28;34079;-79
2022/06/28 09:10:58;;;;;;;2.20;0.80;;;29.30;1.00;;;;;;5071474;28;34108;-78
2022/06/28 09:13:24;;;;;;;0.73;0.70;;;29.10;1.00;;;;;;5085717;28;35779;-78
2022/06/28 09:15:53;;;;;;;1.95;0.70;;;29.20;1.00;;;;;;5067998;28;34376;-78
2022/06/28 09:18:23;;;;;;;1.33;0.60;;;29.30;1.00;;;;;;5085886;28;34028;-78
2022/06/28 09:20:53;;;;;;;1.05;0.75;;;29.50;1.00;;;;;;5087266;28;34182;-78
2022/06/28 09:23:22;;;;;;;1.90;0.80;;;29.70;1.00;;;;;;5067947;28;35614;-78
2022/06/28 09:25:48;;;;;;;1.17;0.70;;;29.80;1.00;;;;;;5086720;28;34043;-78
2022/06/28 09:28:23;;;;;;;1.40;0.80;;;29.90;1.00;;;;;;5068663;28;34155;-78
2022/06/28 09:30:49;;;;;;;2.50;0.70;;;29.90;1.00;;;;;;5085162;28;34292;-78
2022/06/28 09:33:30;;;;;;;0.80;0.77;;;30.00;1.00;;;;;;5085015;28;34291;-77
2022/06/28 09:35:56;;;;;;;1.27;0.60;;;29.90;1.00;;;;;;5073759;28;34395;-78
2022/06/28 09:38:32;;;;;;;1.13;0.60;;;29.70;1.00;;;;;;5060864;28;34224;-78
2022/06/28 09:41:00;;;;;;;1.60;0.70;;;29.30;1.00;;;;;;5084498;28;34306;-78
2022/06/28 09:43:34;;;;;;;1.88;0.90;;;29.00;1.00;;;;;;5086692;28;35108;-77
2022/06/28 09:46:04;;;;;;;1.38;0.70;;;28.90;1.00;;;;;;5091658;28;34166;-77
2022/06/28 09:48:37;;;;;;;0.80;0.70;;;28.60;1.00;;;;;;5086327;28;34487;-77
2022/06/28 09:51:04;;;;;;;3.30;0.77;;;28.30;1.00;;;;;;5087398;28;34449;-78
2022/06/28 09:53:33;;;;;;;1.05;0.68;;;28.10;1.00;;;;;;5087669;28;34098;-77
2022/06/28 09:56:03;;;;;;;1.92;0.80;;;27.90;1.00;;;;;;5087843;28;34214;-77
2022/06/28 09:58:30;;;;;;;3.50;0.90;;;27.90;1.00;;;;;;5070442;28;34096;-78
2022/06/28 10:00:56;;;;;;;0.73;0.70;;;27.90;1.00;;;;;;5066562;28;34284;-77
2022/06/28 10:03:23;;;;;;;3.10;0.77;;;28.00;1.00;;;;;;5085562;28;34062;-77
2022/06/28 10:05:49;;;;;;;1.85;0.68;;;28.20;1.00;;;;;;5086841;28;34162;-78
2022/06/28 10:08:14;;;;;;;0.95;0.70;;;28.60;1.00;;;;;;5077240;28;34475;-78
2022/06/28 10:10:41;;;;;;;2.30;0.88;;;28.70;1.00;;;;;;5087685;28;34125;-77
2022/06/28 10:15:59;;;;;;;1.80;0.90;;;28.40;1.00;;;;;;5075985;28;34281;-79
2022/06/28 10:18:27;;;;;;;2.80;1.00;;;28.10;1.00;;;;;;5087235;28;34277;-78
2022/06/28 10:20:53;;;;;;;0.70;0.70;;;27.70;1.00;;;;;;5086372;28;34192;-78
2022/06/28 10:23:37;;;;;;;2.42;0.90;;;27.50;1.00;;;;;;5086745;28;36402;-77
2022/06/28 10:26:11;;;;;;;1.70;0.85;;;27.40;1.00;;;;;;5087268;28;34342;-77
2022/06/28 10:28:42;;;;;;;1.92;0.70;;;27.60;1.00;;;;;;5087615;28;34200;-77
2022/06/28 10:31:33;;;;;;;1.33;0.70;;;27.80;1.00;;;;;;5086273;28;34082;-77
2022/06/28 10:34:02;;;;;;;2.88;0.70;;;28.10;1.00;;;;;;5085103;28;35856;-77
2022/06/28 10:36:39;;;;;;;0.90;0.75;;;28.40;1.00;;;;;;5067602;28;33578;-77
2022/06/28 10:39:14;;;;;;;3.58;0.93;;;28.70;1.00;;;;;;5072502;28;34130;-78
2022/06/28 10:41:42;;;;;;;1.05;0.68;;;28.90;1.00;;;;;;5086723;28;34192;-77
2022/06/28 10:44:15;;;;;;;0.73;0.70;;;29.20;1.00;;;;;;5087683;28;34518;-78
2022/06/28 10:46:48;;;;;;;0.75;0.60;;;29.60;1.00;;;;;;5071062;28;34223;-78
2022/06/28 10:49:14;;;;;;;2.00;0.75;;;29.60;1.00;;;;;;5071161;28;33638;-78
2022/06/28 10:51:58;;;;;;;0.60;0.60;;;29.30;1.00;;;;;;5086910;28;34399;-78
2022/06/28 10:54:24;;;;;;;2.13;0.75;;;29.20;1.00;;;;;;5086191;28;36081;-80
2022/06/28 10:56:50;;;;;;;2.15;0.68;;;29.10;1.00;;;;;;5087524;28;34018;-77
2022/06/28 10:59:18;;;;;;;3.47;0.60;;;29.20;1.00;;;;;;5086256;28;34203;-77
2022/06/28 11:01:53;;;;;;;1.70;0.70;;;29.30;1.00;;;;;;5087161;28;34302;-79
2022/06/28 11:04:25;;;;;;;1.63;0.70;;;29.50;1.00;;;;;;5086515;28;35665;-77
2022/06/28 11:06:59;;;;;;;1.63;0.70;;;29.80;1.00;;;;;;5088310;28;33756;-79
2022/06/28 11:09:52;;;;;;;1.10;0.50;;;29.90;1.00;;;;;;5086975;28;33639;-77
2022/06/28 11:12:21;;;;;;;1.15;0.80;;;30.00;1.00;;;;;;5069218;28;34136;-81
2022/06/28 11:14:57;;;;;;;3.55;0.75;;;30.20;1.00;;;;;;5085737;28;35751;-77
2022/06/28 11:17:34;;;;;;;1.80;0.60;;;30.30;1.00;;;;;;5084692;28;34190;-75
2022/06/28 11:20:02;;;;;;;3.35;0.70;;;30.50;1.00;;;;;;5050976;28;34169;-77
2022/06/28 11:22:31;;;;;;;0.75;0.52;;;30.60;1.00;;;;;;5067436;28;34129;-77
2022/06/28 11:24:59;;;;;;;1.70;0.60;;;30.60;1.00;;;;;;5085009;28;34213;-77
2022/06/28 11:27:26;;;;;;;0.82;0.50;;;30.60;1.00;;;;;;5084070;28;34021;-77
2022/06/28 11:30:06;;;;;;;1.55;0.50;;;30.70;1.00;;;;;;5083875;28;34240;-76
2022/06/28 11:32:36;;;;;;;1.02;0.80;;;30.40;1.00;;;;;;5084990;28;34224;-77
2022/06/28 11:35:07;;;;;;;0.90;0.50;;;30.20;1.00;;;;;;5067153;28;35886;-76
2022/06/28 11:37:46;;;;;;;0.93;0.57;;;30.10;1.00;;;;;;5066935;28;34326;-77
2022/06/28 11:40:12;;;;;;;1.48;0.60;;;30.10;1.00;;;;;;5068598;28;34018;-77
2022/06/28 11:42:38;;;;;;;0.85;0.57;;;30.30;1.00;;;;;;5084466;28;34163;-78
2022/06/28 11:45:23;;;;;;;0.88;0.57;;;30.60;1.00;;;;;;5083299;28;36516;-77
2022/06/28 11:47:49;;;;;;;0.63;0.60;;;30.70;1.00;;;;;;5083749;28;34283;-78
2022/06/28 11:50:18;;;;;;;3.08;0.77;;;30.60;1.00;;;;;;5083892;28;34192;-77
2022/06/28 11:52:48;;;;;;;1.55;0.70;;;30.50;1.00;;;;;;5083680;28;33841;-77
2022/06/28 11:55:14;;;;;;;0.95;0.70;;;30.60;1.00;;;;;;5084716;28;34243;-77
2022/06/28 11:57:41;;;;;;;0.80;0.60;;;30.50;1.00;;;;;;5083326;28;34332;-75
2022/06/28 12:00:07;;;;;;;1.15;0.50;;;30.50;1.00;;;;;;5082948;28;34102;-76
2022/06/28 12:02:40;;;;;;;1.42;0.60;;;30.40;1.00;;;;;;5082326;28;34422;-76
2022/06/28 12:05:07;;;;;;;1.70;0.60;;;30.40;1.00;;;;;;5084067;28;34137;-77
2022/06/28 12:07:36;;;;;;;0.68;0.63;;;30.50;1.00;;;;;;5083144;28;34138;-76
2022/06/28 12:10:02;;;;;;;0.68;0.60;;;30.80;1.00;;;;;;5083160;28;34288;-76
2022/06/28 12:12:29;;;;;;;1.92;0.63;;;30.90;1.00;;;;;;5083441;28;34610;-76
2022/06/28 12:14:57;;;;;;;3.50;0.70;;;30.80;1.00;;;;;;5082732;28;35825;-76
2022/06/28 12:17:24;;;;;;;0.90;0.65;;;30.80;1.00;;;;;;5082227;28;34172;-77
2022/06/28 12:19:50;;;;;;;2.95;0.70;;;30.40;1.00;;;;;;5084400;28;34111;-76
2022/06/28 12:22:23;;;;;;;6.55;0.70;;;30.20;1.00;;;;;;5082676;28;34169;-76
2022/06/28 12:24:54;;;;;;;0.90;0.63;;;30.00;1.00;;;;;;5083859;28;34357;-76
2022/06/28 12:27:25;;;;;;;5.28;0.80;;;29.80;1.00;;;;;;5099747;28;34226;-76
2022/06/28 12:29:52;;;;;;;2.35;0.90;;;29.70;1.00;;;;;;5083130;28;34276;-77
2022/06/28 12:32:19;;;;;;;1.73;1.00;;;29.90;1.00;;;;;;5082833;28;34065;-77
2022/06/28 12:34:45;;;;;;;0.98;0.68;;;30.20;1.00;;;;;;5082754;28;36591;-76
2022/06/28 12:37:12;;;;;;;2.25;0.73;;;30.40;1.00;;;;;;5082905;28;34308;-75
2022/06/28 12:39:38;;;;;;;0.93;0.80;;;30.40;1.00;;;;;;5082791;28;34113;-77
2022/06/28 12:42:05;;;;;;;0.63;0.55;;;30.40;1.00;;;;;;5082894;28;34382;-76
2022/06/28 12:44:31;;;;;;;1.48;0.70;;;30.30;1.00;;;;;;5084276;28;34945;-78
2022/06/28 12:46:57;;;;;;;3.83;0.73;;;30.10;1.00;;;;;;5082986;28;34037;-78
2022/06/28 12:49:24;;;;;;;2.28;0.57;;;30.20;1.00;;;;;;5083659;28;34483;-76
2022/06/28 12:51:51;;;;;;;0.80;0.52;;;30.40;1.00;;;;;;5083063;28;34240;-77
2022/06/28 12:54:17;;;;;;;2.38;0.77;;;30.40;1.00;;;;;;5065609;28;36103;-78
2022/06/28 12:56:43;;;;;;;1.65;0.70;;;30.50;1.00;;;;;;5083816;28;34124;-77
2022/06/28 12:59:09;;;;;;;3.40;0.95;;;30.50;1.00;;;;;;5083987;28;34165;-77
2022/06/28 13:01:35;;;;;;;1.70;0.70;;;30.60;1.00;;;;;;5065951;28;34150;-77
2022/06/28 13:04:02;;;;;;;3.65;1.20;;;30.70;1.00;;;;;;5084625;28;34706;-78
2022/06/28 13:06:29;;;;;;;1.85;0.90;;;30.60;1.00;;;;;;5084571;28;34023;-78
2022/06/28 13:08:55;;;;;;;3.08;1.00;;;30.80;1.00;;;;;;5093047;28;34392;-78
2022/06/28 13:11:22;;;;;;;0.95;0.77;;;30.80;1.00;;;;;;5091385;28;34137;-78
2022/06/28 13:13:49;;;;;;;0.55;0.50;;;30.50;1.00;;;;;;5085888;28;35820;-78